createdAt,value
2023-05-17T00:00:25.583Z,9.96
2023-05-17T00:02:51.977Z,10.00
2023-05-17T00:05:18.541Z,9.94
2023-05-17T00:07:47.064Z,9.89
2023-05-17T00:10:13.524Z,9.78
2023-05-17T00:12:40.209Z,9.88
2023-05-17T00:15:06.971Z,9.78
2023-05-17T00:17:33.611Z,9.76
2023-05-17T00:20:00.056Z,9.79
2023-05-17T00:22:26.451Z,9.79
2023-05-17T00:24:52.839Z,9.51
2023-05-17T00:27:19.195Z,9.20
2023-05-17T00:29:45.648Z,9.34
2023-05-17T00:32:12.037Z,9.55
2023-05-17T00:34:38.430Z,9.26
2023-05-17T00:37:04.924Z,9.33
2023-05-17T00:39:31.325Z,9.27
2023-05-17T00:41:57.716Z,9.30
2023-05-17T00:44:24.096Z,9.13
2023-05-17T00:46:50.529Z,9.33
2023-05-17T00:49:17.394Z,9.14
2023-05-17T00:51:44.555Z,9.07
2023-05-17T00:54:11.247Z,9.18
2023-05-17T00:56:38.788Z,9.02
2023-05-17T00:59:06.607Z,9.07
2023-05-17T01:01:35.477Z,9.09
2023-05-17T01:04:02.226Z,9.10
2023-05-17T01:06:28.713Z,9.04
2023-05-17T01:08:55.324Z,8.86
2023-05-17T01:11:40.370Z,9.03
2023-05-17T01:14:34.038Z,8.96
2023-05-17T01:17:07.142Z,8.89
2023-05-17T01:19:48.893Z,8.70
2023-05-17T01:22:26.948Z,8.72
2023-05-17T01:25:04.559Z,8.61
2023-05-17T01:27:31.949Z,8.70
2023-05-17T01:30:00.788Z,8.80
2023-05-17T01:32:28.377Z,8.68
2023-05-17T01:34:54.808Z,8.58
2023-05-17T01:37:21.244Z,8.59
2023-05-17T01:39:48.046Z,8.31
2023-05-17T01:42:22.282Z,8.14
2023-05-17T01:45:03.037Z,8.12
2023-05-17T01:47:43.382Z,8.48
2023-05-17T01:50:14.772Z,8.05
2023-05-17T01:52:52.632Z,8.26
2023-05-17T01:55:26.603Z,8.09
2023-05-17T01:57:55.744Z,8.21
2023-05-17T02:00:24.521Z,8.19
2023-05-17T02:02:51.347Z,8.00
2023-05-17T02:05:19.144Z,8.03
2023-05-17T02:07:45.674Z,8.09
2023-05-17T02:10:12.367Z,7.88
2023-05-17T02:12:42.261Z,7.83
2023-05-17T02:15:11.219Z,7.89
2023-05-17T02:17:40.339Z,8.05
2023-05-17T02:20:08.441Z,7.98
2023-05-17T02:22:35.442Z,7.92
2023-05-17T02:25:02.380Z,7.85
2023-05-17T02:27:28.820Z,7.57
2023-05-17T02:29:55.335Z,7.69
2023-05-17T02:32:21.721Z,7.69
2023-05-17T02:34:48.233Z,7.48
2023-05-17T02:37:14.589Z,7.62
2023-05-17T02:39:43.219Z,7.65
2023-05-17T02:42:09.610Z,7.71
2023-05-17T02:44:35.986Z,7.56
2023-05-17T02:47:02.516Z,7.64
2023-05-17T02:49:29.788Z,7.75
2023-05-17T02:51:56.185Z,7.73
2023-05-17T02:54:22.598Z,7.94
2023-05-17T02:56:49.143Z,7.92
2023-05-17T02:59:17.045Z,7.86
2023-05-17T03:01:43.467Z,7.95
2023-05-17T03:04:10.043Z,7.99
2023-05-17T03:06:37.867Z,8.16
2023-05-17T03:09:04.277Z,8.23
2023-05-17T03:11:30.726Z,8.12
2023-05-17T03:13:58.395Z,8.28
2023-05-17T03:16:27.108Z,8.17
2023-05-17T03:18:54.079Z,8.16
2023-05-17T03:21:20.539Z,8.04
2023-05-17T03:23:48.107Z,8.15
2023-05-17T03:26:14.500Z,8.10
2023-05-17T03:28:46.468Z,8.07
2023-05-17T03:31:13.151Z,7.91
2023-05-17T03:33:39.681Z,7.75
2023-05-17T03:36:07.217Z,7.58
2023-05-17T03:38:33.629Z,7.60
2023-05-17T03:41:00.250Z,7.46
2023-05-17T03:43:26.792Z,7.25
2023-05-17T03:45:53.293Z,6.89
2023-05-17T03:48:19.816Z,7.06
2023-05-17T03:50:46.355Z,7.12
2023-05-17T03:53:12.793Z,7.17
2023-05-17T03:55:39.155Z,7.30
2023-05-17T03:58:07.399Z,7.41
2023-05-17T04:00:33.817Z,7.56
2023-05-17T04:03:07.081Z,7.58
2023-05-17T04:05:33.531Z,7.59
2023-05-17T04:08:00.481Z,7.63
2023-05-17T04:10:27.016Z,7.54
2023-05-17T04:12:53.809Z,7.41
2023-05-17T04:15:21.931Z,7.38
2023-05-17T04:17:48.742Z,7.17
2023-05-17T04:20:15.359Z,7.14
2023-05-17T04:22:42.233Z,6.98
2023-05-17T04:25:10.601Z,6.92
2023-05-17T04:27:38.014Z,7.04
2023-05-17T04:30:07.607Z,7.00
2023-05-17T04:32:34.642Z,7.02
2023-05-17T04:35:02.251Z,7.08
2023-05-17T04:37:28.766Z,7.31
2023-05-17T04:39:59.667Z,7.18
2023-05-17T04:42:28.215Z,7.20
2023-05-17T04:44:57.723Z,7.11
2023-05-17T04:47:24.484Z,7.35
2023-05-17T04:49:51.894Z,7.33
2023-05-17T04:52:18.336Z,7.43
2023-05-17T04:54:45.667Z,7.50
2023-05-17T04:57:12.232Z,7.64
2023-05-17T05:00:12.451Z,7.55
2023-05-17T05:02:42.169Z,7.48
2023-05-17T05:05:10.724Z,7.50
2023-05-17T05:07:39.693Z,7.61
2023-05-17T05:10:07.711Z,7.74
2023-05-17T05:12:34.594Z,7.77
2023-05-17T05:15:01.370Z,8.01
2023-05-17T05:17:31.031Z,7.90
2023-05-17T05:19:57.754Z,7.94
2023-05-17T05:22:24.542Z,8.18
2023-05-17T05:24:51.294Z,7.91
2023-05-17T05:27:18.323Z,8.11
2023-05-17T05:29:46.111Z,8.13
2023-05-17T05:32:12.949Z,8.20
2023-05-17T05:34:45.224Z,8.46
2023-05-17T05:37:11.586Z,8.56
2023-05-17T05:39:38.097Z,8.78
2023-05-17T05:42:04.885Z,8.92
2023-05-17T05:44:31.585Z,9.03
2023-05-17T05:46:59.912Z,9.15
2023-05-17T05:49:26.435Z,9.33
2023-05-17T05:51:53.633Z,9.37
2023-05-17T05:54:20.552Z,9.49
2023-05-17T05:56:47.179Z,9.65
2023-05-17T05:59:15.910Z,9.84
2023-05-17T06:01:42.335Z,9.92
2023-05-17T06:04:08.683Z,9.93
2023-05-17T06:06:35.740Z,10.13
2023-05-17T06:09:02.531Z,10.26
2023-05-17T06:11:28.890Z,10.30
2023-05-17T06:13:55.402Z,10.30
2023-05-17T06:16:21.759Z,10.37
2023-05-17T06:18:50.335Z,10.33
2023-05-17T06:21:18.347Z,10.30
2023-05-17T06:23:44.672Z,10.38
2023-05-17T06:26:11.159Z,10.35
2023-05-17T06:28:38.059Z,10.53
2023-05-17T06:31:04.579Z,10.66
2023-05-17T06:33:31.066Z,10.71
2023-05-17T06:35:58.154Z,10.89
2023-05-17T06:38:24.962Z,10.91
2023-05-17T06:40:53.725Z,11.02
2023-05-17T06:43:20.584Z,11.03
2023-05-17T06:45:47.004Z,11.19
2023-05-17T06:48:13.655Z,11.14
2023-05-17T06:50:40.121Z,11.26
2023-05-17T06:53:06.872Z,11.35
2023-05-17T06:55:33.272Z,11.44
2023-05-17T06:58:00.176Z,11.35
2023-05-17T07:00:26.868Z,11.35
2023-05-17T07:02:53.399Z,11.29
2023-05-17T07:05:24.020Z,11.44
2023-05-17T07:07:50.568Z,11.46
2023-05-17T07:10:16.990Z,11.57
2023-05-17T07:12:43.421Z,11.57
2023-05-17T07:15:10.450Z,11.67
2023-05-17T07:17:37.581Z,11.71
2023-05-17T07:20:06.038Z,11.88
2023-05-17T07:22:32.531Z,11.85
2023-05-17T07:24:58.945Z,11.80
2023-05-17T07:27:25.730Z,11.76
2023-05-17T07:29:52.212Z,11.80
2023-05-17T07:32:18.590Z,11.92
2023-05-17T07:34:45.953Z,12.08
2023-05-17T07:37:12.347Z,12.05
2023-05-17T07:39:38.912Z,12.20
2023-05-17T07:42:05.894Z,12.19
2023-05-17T07:44:32.314Z,12.26
2023-05-17T07:46:58.718Z,12.29
2023-05-17T07:49:27.354Z,12.33
2023-05-17T07:51:55.351Z,12.26
2023-05-17T07:54:29.592Z,12.21
2023-05-17T07:56:56.263Z,12.18
2023-05-17T07:59:23.119Z,12.15
2023-05-17T08:01:50.167Z,12.07
2023-05-17T08:04:16.614Z,12.13
2023-05-17T08:06:45.920Z,12.16
2023-05-17T08:09:12.529Z,12.23
2023-05-17T08:11:45.635Z,12.37
2023-05-17T08:14:13.786Z,12.55
2023-05-17T08:16:41.078Z,12.56
2023-05-17T08:19:07.627Z,12.54
2023-05-17T08:21:34.790Z,12.68
2023-05-17T08:24:02.137Z,12.78
2023-05-17T08:26:30.434Z,12.80
2023-05-17T08:28:56.774Z,12.95
2023-05-17T08:31:23.167Z,13.18
2023-05-17T08:33:49.569Z,13.11
2023-05-17T08:36:16.060Z,13.02
2023-05-17T08:38:42.835Z,12.92
2023-05-17T08:41:09.508Z,12.89
2023-05-17T08:43:36.069Z,13.02
2023-05-17T08:46:04.073Z,13.03
2023-05-17T08:48:36.682Z,13.03
2023-05-17T08:51:03.398Z,12.92
2023-05-17T08:53:29.852Z,12.70
2023-05-17T08:56:00.370Z,12.58
2023-05-17T08:58:32.595Z,12.72
2023-05-17T09:01:07.198Z,13.02
2023-05-17T09:03:35.661Z,13.37
2023-05-17T09:06:03.515Z,13.64
2023-05-17T09:08:30.212Z,13.78
2023-05-17T09:10:59.248Z,13.73
2023-05-17T09:13:26.127Z,13.54
2023-05-17T09:15:54.061Z,13.39
2023-05-17T09:18:30.091Z,13.28
2023-05-17T09:21:02.764Z,13.60
2023-05-17T09:23:33.344Z,13.60
2023-05-17T09:26:07.921Z,13.50
2023-05-17T09:28:42.170Z,13.23
2023-05-17T09:31:09.760Z,13.07
2023-05-17T09:33:44.768Z,12.91
2023-05-17T09:36:23.711Z,12.84
2023-05-17T09:38:55.356Z,12.82
2023-05-17T09:41:22.828Z,12.83
2023-05-17T09:43:49.334Z,13.00
2023-05-17T09:46:15.952Z,13.40
2023-05-17T09:48:44.285Z,13.72
2023-05-17T09:51:11.082Z,14.00
2023-05-17T09:53:39.996Z,14.14
2023-05-17T09:56:07.311Z,14.01
2023-05-17T09:58:37.102Z,13.86
2023-05-17T10:01:05.927Z,13.56
2023-05-17T10:03:35.745Z,13.39
2023-05-17T10:06:07.153Z,13.41
2023-05-17T10:08:34.166Z,13.60
2023-05-17T10:11:07.697Z,14.01
2023-05-17T10:13:40.600Z,14.33
2023-05-17T10:16:07.357Z,14.49
2023-05-17T10:18:34.376Z,14.87
2023-05-17T10:21:02.021Z,14.91
2023-05-17T10:23:29.920Z,15.14
2023-05-17T10:25:56.398Z,15.20
2023-05-17T10:28:23.118Z,15.50
2023-05-17T10:30:51.328Z,15.71
2023-05-17T10:33:18.716Z,15.70
2023-05-17T10:35:47.052Z,15.88
2023-05-17T10:38:13.581Z,15.89
2023-05-17T10:40:42.249Z,16.13
2023-05-17T10:43:10.516Z,16.33
2023-05-17T10:45:37.825Z,16.61
2023-05-17T10:48:08.269Z,16.80
2023-05-17T10:50:45.037Z,16.81
2023-05-17T10:53:20.621Z,16.97
2023-05-17T10:55:47.306Z,16.97
2023-05-17T10:58:21.289Z,16.58
2023-05-17T11:00:55.659Z,16.72
2023-05-17T11:03:29.951Z,16.82
2023-05-17T11:06:23.522Z,16.83
2023-05-17T11:09:19.312Z,17.05
2023-05-17T11:12:06.151Z,16.98
2023-05-17T11:14:44.797Z,17.00
2023-05-17T11:17:19.261Z,17.03
2023-05-17T11:19:58.824Z,16.86
2023-05-17T11:22:27.426Z,16.67
2023-05-17T11:24:57.041Z,16.83
2023-05-17T11:27:27.410Z,17.07
2023-05-17T11:30:00.113Z,17.11
2023-05-17T11:32:32.007Z,17.07
2023-05-17T11:35:01.582Z,17.03
2023-05-17T11:37:29.737Z,17.00
2023-05-17T11:40:07.743Z,17.37
2023-05-17T11:42:36.282Z,17.56
2023-05-17T11:45:04.070Z,17.73
2023-05-17T11:47:31.343Z,17.97
2023-05-17T11:50:02.821Z,18.18
2023-05-17T11:52:31.048Z,17.97
2023-05-17T11:54:58.816Z,17.40
2023-05-17T11:57:30.788Z,17.38
2023-05-17T12:00:01.862Z,17.61
2023-05-17T12:02:31.822Z,17.89
2023-05-17T12:04:58.911Z,17.96
2023-05-17T12:07:26.275Z,18.03
2023-05-17T12:09:52.952Z,17.97
2023-05-17T12:12:21.874Z,18.07
2023-05-17T12:14:48.668Z,18.29
2023-05-17T12:17:28.261Z,18.54
2023-05-17T12:19:55.301Z,18.62
2023-05-17T12:22:21.912Z,18.67
2023-05-17T12:24:48.666Z,18.77
2023-05-17T12:27:25.536Z,18.88
2023-05-17T12:29:51.935Z,18.81
2023-05-17T12:32:18.612Z,18.71
2023-05-17T12:34:45.959Z,18.72
2023-05-17T12:37:13.117Z,18.30
2023-05-17T12:39:40.487Z,18.60
2023-05-17T12:42:07.743Z,18.75
2023-05-17T12:44:34.098Z,18.67
2023-05-17T12:47:02.493Z,18.83
2023-05-17T12:49:28.823Z,18.69
2023-05-17T12:51:55.201Z,18.81
2023-05-17T12:54:28.260Z,18.93
2023-05-17T12:56:55.355Z,18.38
2023-05-17T12:59:24.950Z,18.25
2023-05-17T13:01:53.520Z,18.38
2023-05-17T13:04:27.989Z,18.56
2023-05-17T13:06:59.775Z,18.63
2023-05-17T13:09:30.625Z,18.85
2023-05-17T13:11:58.951Z,18.62
2023-05-17T13:14:45.635Z,18.35
2023-05-17T13:17:27.144Z,18.42
2023-05-17T13:19:56.337Z,18.55
2023-05-17T13:22:24.945Z,18.45
2023-05-17T13:24:51.295Z,18.40
2023-05-17T13:27:17.719Z,18.53
2023-05-17T13:29:44.185Z,18.31
2023-05-17T13:32:12.925Z,18.30
2023-05-17T13:34:40.465Z,18.23
2023-05-17T13:37:11.105Z,17.85
2023-05-17T13:39:38.302Z,17.87
2023-05-17T13:42:05.389Z,17.81
2023-05-17T13:44:31.890Z,17.85
2023-05-17T13:46:58.219Z,17.97
2023-05-17T13:49:24.636Z,18.04
2023-05-17T13:51:51.001Z,18.14
2023-05-17T13:54:19.992Z,18.23
2023-05-17T13:56:46.673Z,18.10
2023-05-17T13:59:13.054Z,18.04
2023-05-17T14:01:40.908Z,17.92
2023-05-17T14:04:07.480Z,17.83
2023-05-17T14:06:33.925Z,17.75
2023-05-17T14:09:00.827Z,17.79
2023-05-17T14:11:27.402Z,17.83
2023-05-17T14:13:53.777Z,17.82
2023-05-17T14:16:22.107Z,17.89
2023-05-17T14:18:48.657Z,17.84
2023-05-17T14:21:15.249Z,17.74
2023-05-17T14:23:41.623Z,17.51
2023-05-17T14:26:09.212Z,17.44
2023-05-17T14:28:38.965Z,17.44
2023-05-17T14:31:09.831Z,17.50
2023-05-17T14:33:36.483Z,17.40
2023-05-17T14:36:03.916Z,17.49
2023-05-17T14:38:30.484Z,17.48
2023-05-17T14:40:57.870Z,17.46
2023-05-17T14:43:24.494Z,17.45
2023-05-17T14:45:51.097Z,17.45
2023-05-17T14:48:17.535Z,17.42
2023-05-17T14:50:43.922Z,17.26
2023-05-17T14:53:10.293Z,17.16
2023-05-17T14:55:36.727Z,17.15
2023-05-17T14:58:03.166Z,17.07
2023-05-17T15:00:29.684Z,17.04
2023-05-17T15:02:56.168Z,17.00
2023-05-17T15:05:22.788Z,16.93
2023-05-17T15:07:49.280Z,16.96
2023-05-17T15:10:15.865Z,16.95
2023-05-17T15:12:42.213Z,16.95
2023-05-17T15:15:09.077Z,16.91
2023-05-17T15:17:35.467Z,16.89
2023-05-17T15:20:01.972Z,16.78
2023-05-17T15:22:29.144Z,16.77
2023-05-17T15:24:57.612Z,16.76
2023-05-17T15:27:24.020Z,16.72
2023-05-17T15:29:50.461Z,16.61
2023-05-17T15:32:16.855Z,16.59
2023-05-17T15:34:43.268Z,16.53
2023-05-17T15:37:09.990Z,16.51
2023-05-17T15:39:36.430Z,16.47
2023-05-17T15:42:03.683Z,16.43
2023-05-17T15:44:30.467Z,16.40
2023-05-17T15:46:56.988Z,16.35
2023-05-17T15:49:23.419Z,16.28
2023-05-17T15:51:49.812Z,16.27
2023-05-17T15:54:16.243Z,16.24
2023-05-17T15:56:42.653Z,16.17
2023-05-17T15:59:09.026Z,16.11
2023-05-17T16:01:35.485Z,16.10
2023-05-17T16:04:01.960Z,16.08
2023-05-17T16:06:34.545Z,16.07
2023-05-17T16:09:01.664Z,15.99
2023-05-17T16:11:28.061Z,16.04
2023-05-17T16:13:54.413Z,16.02
2023-05-17T16:16:20.770Z,16.01
2023-05-17T16:18:47.305Z,15.94
2023-05-17T16:21:14.155Z,16.00
2023-05-17T16:23:40.702Z,15.98
2023-05-17T16:26:07.125Z,15.96
2023-05-17T16:28:35.388Z,15.94
2023-05-17T16:31:03.619Z,15.96
2023-05-17T16:33:30.095Z,15.88
2023-05-17T16:35:57.790Z,15.86
2023-05-17T16:38:25.390Z,15.89
2023-05-17T16:40:51.816Z,15.81
2023-05-17T16:43:18.151Z,15.85
2023-05-17T16:45:44.920Z,15.83
2023-05-17T16:48:15.099Z,15.83
2023-05-17T16:50:42.393Z,15.77
2023-05-17T16:53:08.995Z,15.74
2023-05-17T16:55:36.242Z,15.74
2023-05-17T16:58:02.794Z,15.72
2023-05-17T17:00:29.989Z,15.70
2023-05-17T17:02:58.337Z,15.70
2023-05-17T17:05:25.078Z,15.69
2023-05-17T17:07:51.559Z,15.58
2023-05-17T17:10:19.838Z,15.53
2023-05-17T17:12:47.135Z,15.53
2023-05-17T17:15:13.935Z,15.53
2023-05-17T17:17:40.350Z,15.50
2023-05-17T17:20:08.976Z,15.43
2023-05-17T17:22:35.768Z,15.31
2023-05-17T17:25:02.113Z,15.23
2023-05-17T17:27:28.535Z,15.28
2023-05-17T17:29:55.555Z,15.26
2023-05-17T17:32:21.998Z,15.23
2023-05-17T17:34:48.448Z,15.15
2023-05-17T17:37:14.881Z,15.16
2023-05-17T17:39:41.998Z,15.12
2023-05-17T17:42:09.679Z,15.06
2023-05-17T17:44:36.065Z,14.99
2023-05-17T17:47:02.523Z,15.00
2023-05-17T17:49:29.966Z,15.02
2023-05-17T17:51:57.927Z,14.92
2023-05-17T17:54:24.328Z,14.90
2023-05-17T17:56:50.660Z,14.88
2023-05-17T17:59:16.985Z,14.83
2023-05-17T18:01:43.574Z,14.80
2023-05-17T18:04:10.999Z,14.79
2023-05-17T18:06:37.486Z,14.79
2023-05-17T18:09:03.876Z,14.71
2023-05-17T18:11:30.408Z,14.75
2023-05-17T18:13:56.782Z,14.71
2023-05-17T18:16:23.279Z,14.80
2023-05-17T18:18:49.690Z,14.71
2023-05-17T18:21:16.133Z,14.69
2023-05-17T18:23:42.551Z,14.66
2023-05-17T18:26:09.031Z,14.68
2023-05-17T18:28:42.585Z,14.55
2023-05-17T18:31:09.714Z,14.52
2023-05-17T18:33:36.370Z,14.41
2023-05-17T18:36:02.903Z,14.37
2023-05-17T18:38:29.293Z,14.41
2023-05-17T18:40:55.766Z,14.33
2023-05-17T18:43:22.160Z,14.35
2023-05-17T18:45:48.490Z,14.30
2023-05-17T18:48:14.926Z,14.32
2023-05-17T18:50:41.321Z,14.21
2023-05-17T18:53:07.766Z,14.19
2023-05-17T18:55:34.140Z,14.22
2023-05-17T18:58:00.602Z,14.22
2023-05-17T19:00:27.193Z,14.13
2023-05-17T19:02:53.655Z,14.00
2023-05-17T19:05:20.217Z,13.97
2023-05-17T19:07:46.578Z,13.87
2023-05-17T19:10:12.970Z,13.90
2023-05-17T19:12:39.530Z,13.80
2023-05-17T19:15:06.315Z,13.75
2023-05-17T19:17:32.809Z,13.64
2023-05-17T19:19:59.290Z,13.57
2023-05-17T19:22:25.637Z,13.55
2023-05-17T19:24:52.044Z,13.54
2023-05-17T19:27:19.674Z,13.48
2023-05-17T19:29:46.942Z,13.43
2023-05-17T19:32:13.523Z,13.31
2023-05-17T19:34:39.992Z,13.31
2023-05-17T19:37:06.470Z,13.25
2023-05-17T19:39:32.897Z,13.18
2023-05-17T19:41:59.261Z,13.28
2023-05-17T19:44:25.810Z,13.11
2023-05-17T19:46:52.309Z,13.05
2023-05-17T19:49:18.687Z,12.91
2023-05-17T19:51:46.595Z,12.77
2023-05-17T19:54:12.980Z,12.81
2023-05-17T19:56:39.513Z,12.84
2023-05-17T19:59:06.105Z,12.77
2023-05-17T20:01:32.532Z,12.75
2023-05-17T20:03:59.118Z,12.62
2023-05-17T20:06:25.793Z,12.63
2023-05-17T20:08:52.186Z,12.65
2023-05-17T20:11:18.608Z,12.56
2023-05-17T20:13:44.980Z,12.30
2023-05-17T20:16:14.526Z,12.35
2023-05-17T20:18:44.510Z,12.35
2023-05-17T20:21:19.383Z,12.41
2023-05-17T20:23:46.693Z,12.33
2023-05-17T20:26:17.035Z,12.12
2023-05-17T20:28:44.858Z,11.93
2023-05-17T20:31:11.583Z,11.90
2023-05-17T20:33:37.933Z,12.08
2023-05-17T20:36:04.508Z,11.88
2023-05-17T20:38:30.928Z,11.86
2023-05-17T20:40:58.190Z,11.87
2023-05-17T20:43:28.654Z,11.87
2023-05-17T20:45:55.514Z,11.69
2023-05-17T20:48:21.882Z,11.69
2023-05-17T20:50:48.926Z,11.46
2023-05-17T20:53:15.325Z,11.26
2023-05-17T20:55:44.137Z,11.55
2023-05-17T20:58:11.176Z,11.64
2023-05-17T21:00:38.218Z,11.30
2023-05-17T21:03:04.722Z,11.07
2023-05-17T21:05:35.897Z,10.88
2023-05-17T21:08:02.542Z,10.67
2023-05-17T21:10:29.342Z,10.69
2023-05-17T21:12:55.935Z,10.95
2023-05-17T21:15:22.316Z,10.93
2023-05-17T21:17:49.225Z,10.75
2023-05-17T21:20:15.812Z,10.80
2023-05-17T21:22:42.314Z,10.80
2023-05-17T21:25:09.184Z,10.72
2023-05-17T21:27:35.634Z,10.54
2023-05-17T21:30:02.089Z,10.57
2023-05-17T21:32:28.533Z,10.74
2023-05-17T21:34:54.963Z,10.79
2023-05-17T21:37:21.379Z,10.56
2023-05-17T21:39:47.757Z,10.35
2023-05-17T21:42:14.180Z,10.70
2023-05-17T21:44:40.739Z,10.70
2023-05-17T21:47:07.176Z,10.62
2023-05-17T21:49:33.603Z,10.52
2023-05-17T21:52:00.054Z,10.54
2023-05-17T21:54:26.502Z,10.68
2023-05-17T21:56:52.885Z,10.29
2023-05-17T21:59:19.264Z,10.21
2023-05-17T22:01:45.729Z,10.05
2023-05-17T22:04:12.232Z,10.19
2023-05-17T22:06:38.558Z,10.17
2023-05-17T22:09:06.888Z,9.89
2023-05-17T22:11:33.786Z,9.81
2023-05-17T22:14:00.191Z,9.94
2023-05-17T22:16:26.622Z,9.86
2023-05-17T22:18:53.171Z,9.86
2023-05-17T22:21:19.738Z,9.78
2023-05-17T22:23:46.385Z,9.81
2023-05-17T22:26:12.837Z,9.84
2023-05-17T22:28:39.198Z,9.85
2023-05-17T22:31:07.487Z,9.75
2023-05-17T22:33:35.573Z,9.60
2023-05-17T22:36:03.504Z,9.50
2023-05-17T22:38:29.884Z,9.59
2023-05-17T22:40:56.271Z,9.52
2023-05-17T22:43:22.698Z,9.49
2023-05-17T22:45:49.984Z,9.71
2023-05-17T22:48:16.392Z,9.43
2023-05-17T22:50:42.807Z,9.39
2023-05-17T22:53:11.121Z,9.47
2023-05-17T22:55:37.517Z,9.47
2023-05-17T22:58:03.882Z,8.97
2023-05-17T23:00:30.229Z,9.30
2023-05-17T23:02:56.769Z,9.22
2023-05-17T23:05:23.385Z,9.11
2023-05-17T23:07:49.821Z,9.03
2023-05-17T23:10:16.208Z,9.14
2023-05-17T23:12:42.614Z,9.13
2023-05-17T23:15:09.439Z,9.08
2023-05-17T23:17:36.353Z,9.05
2023-05-17T23:20:09.869Z,9.08
2023-05-17T23:22:36.981Z,8.78
2023-05-17T23:25:03.458Z,9.03
2023-05-17T23:27:30.096Z,8.64
2023-05-17T23:29:56.734Z,8.94
2023-05-17T23:32:23.454Z,8.68
2023-05-17T23:34:50.346Z,8.90
2023-05-17T23:37:16.873Z,8.57
2023-05-17T23:39:43.274Z,8.67
2023-05-17T23:42:10.199Z,8.70
2023-05-17T23:44:48.665Z,8.49
2023-05-17T23:47:15.631Z,8.55
2023-05-17T23:49:41.996Z,8.59
2023-05-17T23:52:11.399Z,8.46
2023-05-17T23:54:38.759Z,8.37
2023-05-17T23:57:05.768Z,8.38
2023-05-17T23:59:33.055Z,8.57
